sensor_id;sensor_type;location;lat;lon;timestamp;P1;durP1;ratioP1;P2;durP2;ratioP2
43646;SDS011;56152;49.996;18.980;2023-01-10T00:03:26;51.95;;;33.05;;
43646;SDS011;56152;49.996;18.980;2023-01-10T00:08:31;52.05;;;33.17;;
43646;SDS011;56152;49.996;18.980;2023-01-10T00:13:34;55.83;;;34.03;;
43646;SDS011;56152;49.996;18.980;2023-01-10T00:18:36;57.47;;;34.40;;
43646;SDS011;56152;49.996;18.980;2023-01-10T00:23:43;51.15;;;30.60;;
43646;SDS011;56152;49.996;18.980;2023-01-10T00:28:46;52.55;;;32.45;;
43646;SDS011;56152;49.996;18.980;2023-01-10T00:33:48;52.05;;;35.17;;
43646;SDS011;56152;49.996;18.980;2023-01-10T00:38:52;55.53;;;36.30;;
43646;SDS011;56152;49.996;18.980;2023-01-10T00:43:54;58.60;;;36.60;;
43646;SDS011;56152;49.996;18.980;2023-01-10T00:48:59;57.80;;;32.70;;
43646;SDS011;56152;49.996;18.980;2023-01-10T00:54:07;58.92;;;34.65;;
43646;SDS011;56152;49.996;18.980;2023-01-10T00:59:09;42.53;;;25.15;;
43646;SDS011;56152;49.996;18.980;2023-01-10T01:04:11;44.67;;;28.42;;
43646;SDS011;56152;49.996;18.980;2023-01-10T01:09:16;40.45;;;28.17;;
43646;SDS011;56152;49.996;18.980;2023-01-10T01:14:18;33.50;;;21.55;;
43646;SDS011;56152;49.996;18.980;2023-01-10T01:19:22;34.83;;;21.63;;
43646;SDS011;56152;49.996;18.980;2023-01-10T01:24:26;37.05;;;22.58;;
43646;SDS011;56152;49.996;18.980;2023-01-10T01:29:28;32.42;;;19.83;;
43646;SDS011;56152;49.996;18.980;2023-01-10T01:34:30;32.35;;;20.60;;
43646;SDS011;56152;49.996;18.980;2023-01-10T01:39:34;26.52;;;16.95;;
43646;SDS011;56152;49.996;18.980;2023-01-10T01:44:36;25.15;;;17.63;;
43646;SDS011;56152;49.996;18.980;2023-01-10T01:49:43;24.23;;;14.65;;
43646;SDS011;56152;49.996;18.980;2023-01-10T01:54:47;29.75;;;18.42;;
43646;SDS011;56152;49.996;18.980;2023-01-10T01:59:50;26.77;;;16.10;;
43646;SDS011;56152;49.996;18.980;2023-01-10T02:04:56;24.38;;;15.60;;
43646;SDS011;56152;49.996;18.980;2023-01-10T02:10:05;25.55;;;17.85;;
43646;SDS011;56152;49.996;18.980;2023-01-10T02:20:17;23.15;;;14.77;;
43646;SDS011;56152;49.996;18.980;2023-01-10T02:25:45;25.42;;;16.80;;
43646;SDS011;56152;49.996;18.980;2023-01-10T02:36:42;18.45;;;13.27;;
43646;SDS011;56152;49.996;18.980;2023-01-10T02:41:52;24.25;;;14.38;;
43646;SDS011;56152;49.996;18.980;2023-01-10T02:47:06;15.25;;;10.57;;
43646;SDS011;56152;49.996;18.980;2023-01-10T02:52:10;19.90;;;11.57;;
43646;SDS011;56152;49.996;18.980;2023-01-10T02:57:18;19.52;;;10.60;;
43646;SDS011;56152;49.996;18.980;2023-01-10T03:02:41;15.15;;;9.63;;
43646;SDS011;56152;49.996;18.980;2023-01-10T03:08:01;12.60;;;9.15;;
43646;SDS011;56152;49.996;18.980;2023-01-10T03:13:13;14.38;;;9.63;;
43646;SDS011;56152;49.996;18.980;2023-01-10T03:18:22;13.43;;;7.97;;
43646;SDS011;56152;49.996;18.980;2023-01-10T03:23:29;9.93;;;5.78;;
43646;SDS011;56152;49.996;18.980;2023-01-10T03:28:37;15.75;;;7.97;;
43646;SDS011;56152;49.996;18.980;2023-01-10T03:33:44;7.57;;;4.55;;
43646;SDS011;56152;49.996;18.980;2023-01-10T03:38:55;28.00;;;13.15;;
43646;SDS011;56152;49.996;18.980;2023-01-10T03:44:04;31.97;;;11.90;;
43646;SDS011;56152;49.996;18.980;2023-01-10T03:49:32;19.75;;;10.13;;
43646;SDS011;56152;49.996;18.980;2023-01-10T03:54:41;25.73;;;14.23;;
43646;SDS011;56152;49.996;18.980;2023-01-10T03:59:44;27.95;;;14.07;;
43646;SDS011;56152;49.996;18.980;2023-01-10T04:04:48;24.40;;;11.23;;
43646;SDS011;56152;49.996;18.980;2023-01-10T04:09:51;15.82;;;11.23;;
43646;SDS011;56152;49.996;18.980;2023-01-10T04:14:54;19.65;;;12.65;;
43646;SDS011;56152;49.996;18.980;2023-01-10T04:20:00;17.08;;;11.15;;
43646;SDS011;56152;49.996;18.980;2023-01-10T04:25:05;15.98;;;10.77;;
43646;SDS011;56152;49.996;18.980;2023-01-10T04:30:08;24.75;;;12.23;;
43646;SDS011;56152;49.996;18.980;2023-01-10T04:35:12;23.80;;;12.48;;
43646;SDS011;56152;49.996;18.980;2023-01-10T04:40:20;28.23;;;17.15;;
43646;SDS011;56152;49.996;18.980;2023-01-10T04:45:24;37.93;;;22.87;;
43646;SDS011;56152;49.996;18.980;2023-01-10T04:50:26;28.85;;;17.17;;
43646;SDS011;56152;49.996;18.980;2023-01-10T04:55:30;26.75;;;17.90;;
43646;SDS011;56152;49.996;18.980;2023-01-10T05:00:32;24.17;;;16.73;;
43646;SDS011;56152;49.996;18.980;2023-01-10T05:05:39;30.00;;;18.02;;
43646;SDS011;56152;49.996;18.980;2023-01-10T05:10:43;25.90;;;17.63;;
43646;SDS011;56152;49.996;18.980;2023-01-10T05:15:45;34.67;;;22.52;;
43646;SDS011;56152;49.996;18.980;2023-01-10T05:20:48;23.38;;;16.65;;
43646;SDS011;56152;49.996;18.980;2023-01-10T05:25:52;36.90;;;27.23;;
43646;SDS011;56152;49.996;18.980;2023-01-10T05:30:55;35.55;;;23.83;;
43646;SDS011;56152;49.996;18.980;2023-01-10T05:35:58;41.45;;;30.48;;
43646;SDS011;56152;49.996;18.980;2023-01-10T05:41:03;27.08;;;19.98;;
43646;SDS011;56152;49.996;18.980;2023-01-10T05:46:08;44.40;;;31.95;;
43646;SDS011;56152;49.996;18.980;2023-01-10T05:51:17;33.05;;;21.48;;
43646;SDS011;56152;49.996;18.980;2023-01-10T05:56:22;34.00;;;20.52;;
43646;SDS011;56152;49.996;18.980;2023-01-10T06:01:25;37.47;;;26.00;;
43646;SDS011;56152;49.996;18.980;2023-01-10T06:06:27;59.85;;;29.20;;
43646;SDS011;56152;49.996;18.980;2023-01-10T06:11:31;28.23;;;17.23;;
43646;SDS011;56152;49.996;18.980;2023-01-10T06:16:35;27.75;;;15.23;;
43646;SDS011;56152;49.996;18.980;2023-01-10T06:21:37;22.50;;;13.82;;
43646;SDS011;56152;49.996;18.980;2023-01-10T06:26:42;21.00;;;13.93;;
43646;SDS011;56152;49.996;18.980;2023-01-10T06:31:44;28.40;;;16.67;;
43646;SDS011;56152;49.996;18.980;2023-01-10T06:36:46;24.88;;;14.05;;
43646;SDS011;56152;49.996;18.980;2023-01-10T06:41:50;24.70;;;11.18;;
43646;SDS011;56152;49.996;18.980;2023-01-10T06:46:54;17.88;;;11.77;;
43646;SDS011;56152;49.996;18.980;2023-01-10T06:51:56;14.20;;;8.90;;
43646;SDS011;56152;49.996;18.980;2023-01-10T06:57:00;13.60;;;7.93;;
43646;SDS011;56152;49.996;18.980;2023-01-10T07:02:03;13.68;;;8.73;;
43646;SDS011;56152;49.996;18.980;2023-01-10T07:07:06;13.70;;;8.35;;
43646;SDS011;56152;49.996;18.980;2023-01-10T07:12:10;13.05;;;8.25;;
43646;SDS011;56152;49.996;18.980;2023-01-10T07:17:13;17.23;;;11.43;;
43646;SDS011;56152;49.996;18.980;2023-01-10T07:22:15;25.17;;;14.77;;
43646;SDS011;56152;49.996;18.980;2023-01-10T07:27:22;65.88;;;33.38;;
43646;SDS011;56152;49.996;18.980;2023-01-10T07:32:24;39.00;;;16.63;;
43646;SDS011;56152;49.996;18.980;2023-01-10T07:37:26;24.48;;;11.77;;
43646;SDS011;56152;49.996;18.980;2023-01-10T07:42:30;25.58;;;13.18;;
43646;SDS011;56152;49.996;18.980;2023-01-10T07:47:32;31.17;;;13.77;;
43646;SDS011;56152;49.996;18.980;2023-01-10T07:52:34;30.75;;;14.40;;
43646;SDS011;56152;49.996;18.980;2023-01-10T07:57:41;30.13;;;14.82;;
43646;SDS011;56152;49.996;18.980;2023-01-10T08:02:44;37.47;;;17.45;;
43646;SDS011;56152;49.996;18.980;2023-01-10T08:07:47;26.10;;;16.08;;
43646;SDS011;56152;49.996;18.980;2023-01-10T08:12:55;22.33;;;10.88;;
43646;SDS011;56152;49.996;18.980;2023-01-10T08:17:58;15.07;;;8.63;;
43646;SDS011;56152;49.996;18.980;2023-01-10T08:23:01;14.05;;;8.20;;
43646;SDS011;56152;49.996;18.980;2023-01-10T08:28:06;13.48;;;9.00;;
43646;SDS011;56152;49.996;18.980;2023-01-10T08:33:09;19.15;;;7.90;;
43646;SDS011;56152;49.996;18.980;2023-01-10T08:38:12;14.27;;;7.43;;
43646;SDS011;56152;49.996;18.980;2023-01-10T08:43:15;10.63;;;7.65;;
43646;SDS011;56152;49.996;18.980;2023-01-10T08:48:17;24.23;;;10.55;;
43646;SDS011;56152;49.996;18.980;2023-01-10T08:53:19;18.02;;;9.10;;
43646;SDS011;56152;49.996;18.980;2023-01-10T08:58:23;12.77;;;7.50;;
43646;SDS011;56152;49.996;18.980;2023-01-10T09:03:27;15.05;;;8.60;;
43646;SDS011;56152;49.996;18.980;2023-01-10T09:08:29;15.43;;;9.75;;
43646;SDS011;56152;49.996;18.980;2023-01-10T09:13:33;26.05;;;14.63;;
43646;SDS011;56152;49.996;18.980;2023-01-10T09:18:35;30.15;;;17.38;;
43646;SDS011;56152;49.996;18.980;2023-01-10T09:23:39;28.67;;;17.08;;
43646;SDS011;56152;49.996;18.980;2023-01-10T09:28:44;25.88;;;13.85;;
43646;SDS011;56152;49.996;18.980;2023-01-10T09:33:48;27.08;;;13.60;;
43646;SDS011;56152;49.996;18.980;2023-01-10T09:38:50;27.83;;;13.75;;
43646;SDS011;56152;49.996;18.980;2023-01-10T09:43:56;22.13;;;11.02;;
43646;SDS011;56152;49.996;18.980;2023-01-10T09:49:05;22.88;;;11.35;;
43646;SDS011;56152;49.996;18.980;2023-01-10T09:54:16;14.98;;;9.45;;
43646;SDS011;56152;49.996;18.980;2023-01-10T09:59:30;17.67;;;11.40;;
43646;SDS011;56152;49.996;18.980;2023-01-10T10:04:36;23.92;;;13.70;;
43646;SDS011;56152;49.996;18.980;2023-01-10T10:09:40;24.38;;;16.42;;
43646;SDS011;56152;49.996;18.980;2023-01-10T10:14:49;22.50;;;16.33;;
43646;SDS011;56152;49.996;18.980;2023-01-10T10:20:25;49.72;;;33.45;;
43646;SDS011;56152;49.996;18.980;2023-01-10T10:25:41;47.17;;;31.05;;
43646;SDS011;56152;49.996;18.980;2023-01-10T10:30:53;102.20;;;61.40;;
43646;SDS011;56152;49.996;18.980;2023-01-10T10:36:06;57.63;;;37.67;;
43646;SDS011;56152;49.996;18.980;2023-01-10T10:41:13;66.93;;;42.38;;
43646;SDS011;56152;49.996;18.980;2023-01-10T10:46:19;62.15;;;36.35;;
43646;SDS011;56152;49.996;18.980;2023-01-10T10:51:22;69.68;;;45.50;;
43646;SDS011;56152;49.996;18.980;2023-01-10T10:56:30;38.72;;;19.73;;
43646;SDS011;56152;49.996;18.980;2023-01-10T11:01:35;46.63;;;21.77;;
43646;SDS011;56152;49.996;18.980;2023-01-10T11:06:37;64.30;;;42.50;;
43646;SDS011;56152;49.996;18.980;2023-01-10T11:11:47;33.03;;;16.48;;
43646;SDS011;56152;49.996;18.980;2023-01-10T11:16:52;34.50;;;19.92;;
43646;SDS011;56152;49.996;18.980;2023-01-10T11:21:55;56.97;;;35.03;;
43646;SDS011;56152;49.996;18.980;2023-01-10T11:27:00;43.22;;;24.33;;
43646;SDS011;56152;49.996;18.980;2023-01-10T11:32:10;36.22;;;23.85;;
43646;SDS011;56152;49.996;18.980;2023-01-10T11:37:19;45.15;;;29.45;;
43646;SDS011;56152;49.996;18.980;2023-01-10T11:42:25;32.67;;;19.25;;
43646;SDS011;56152;49.996;18.980;2023-01-10T11:47:31;46.22;;;27.08;;
43646;SDS011;56152;49.996;18.980;2023-01-10T11:52:34;39.63;;;24.48;;
43646;SDS011;56152;49.996;18.980;2023-01-10T11:57:37;37.28;;;24.67;;
43646;SDS011;56152;49.996;18.980;2023-01-10T12:02:43;43.10;;;23.10;;
43646;SDS011;56152;49.996;18.980;2023-01-10T12:07:53;37.33;;;24.55;;
43646;SDS011;56152;49.996;18.980;2023-01-10T12:18:01;49.95;;;30.60;;
43646;SDS011;56152;49.996;18.980;2023-01-10T12:23:05;49.97;;;28.80;;
43646;SDS011;56152;49.996;18.980;2023-01-10T12:28:14;68.57;;;41.40;;
43646;SDS011;56152;49.996;18.980;2023-01-10T12:33:25;55.58;;;29.77;;
43646;SDS011;56152;49.996;18.980;2023-01-10T12:38:31;48.47;;;26.38;;
43646;SDS011;56152;49.996;18.980;2023-01-10T12:43:54;33.30;;;20.23;;
43646;SDS011;56152;49.996;18.980;2023-01-10T12:49:15;36.78;;;22.58;;
43646;SDS011;56152;49.996;18.980;2023-01-10T12:54:23;42.55;;;22.17;;
43646;SDS011;56152;49.996;18.980;2023-01-10T12:59:28;51.10;;;28.02;;
43646;SDS011;56152;49.996;18.980;2023-01-10T13:04:38;46.77;;;29.30;;
43646;SDS011;56152;49.996;18.980;2023-01-10T13:09:42;56.80;;;29.90;;
43646;SDS011;56152;49.996;18.980;2023-01-10T13:14:49;60.72;;;34.60;;
43646;SDS011;56152;49.996;18.980;2023-01-10T13:25:36;27.73;;;19.73;;
43646;SDS011;56152;49.996;18.980;2023-01-10T13:30:38;41.20;;;26.40;;
43646;SDS011;56152;49.996;18.980;2023-01-10T13:35:41;51.20;;;33.88;;
43646;SDS011;56152;49.996;18.980;2023-01-10T13:40:59;31.30;;;22.40;;
43646;SDS011;56152;49.996;18.980;2023-01-10T13:51:34;41.03;;;23.33;;
43646;SDS011;56152;49.996;18.980;2023-01-10T13:56:39;34.13;;;20.58;;
43646;SDS011;56152;49.996;18.980;2023-01-10T14:01:42;53.72;;;31.65;;
43646;SDS011;56152;49.996;18.980;2023-01-10T14:07:04;32.97;;;21.85;;
43646;SDS011;56152;49.996;18.980;2023-01-10T14:12:24;24.42;;;17.33;;
43646;SDS011;56152;49.996;18.980;2023-01-10T14:17:29;23.50;;;14.48;;
43646;SDS011;56152;49.996;18.980;2023-01-10T14:22:35;20.50;;;15.00;;
43646;SDS011;56152;49.996;18.980;2023-01-10T14:27:43;24.08;;;14.27;;
43646;SDS011;56152;49.996;18.980;2023-01-10T14:32:49;20.40;;;13.30;;
43646;SDS011;56152;49.996;18.980;2023-01-10T14:37:53;21.48;;;15.30;;
43646;SDS011;56152;49.996;18.980;2023-01-10T14:42:59;18.95;;;14.48;;
43646;SDS011;56152;49.996;18.980;2023-01-10T14:48:16;26.65;;;18.63;;
43646;SDS011;56152;49.996;18.980;2023-01-10T14:53:27;21.20;;;16.02;;
43646;SDS011;56152;49.996;18.980;2023-01-10T14:58:32;31.85;;;21.70;;
43646;SDS011;56152;49.996;18.980;2023-01-10T15:03:36;33.03;;;20.80;;
43646;SDS011;56152;49.996;18.980;2023-01-10T15:08:53;36.93;;;28.10;;
43646;SDS011;56152;49.996;18.980;2023-01-10T15:14:00;31.73;;;22.45;;
43646;SDS011;56152;49.996;18.980;2023-01-10T15:19:10;33.70;;;24.33;;
43646;SDS011;56152;49.996;18.980;2023-01-10T15:24:22;36.15;;;24.15;;
43646;SDS011;56152;49.996;18.980;2023-01-10T15:29:29;35.45;;;24.30;;
43646;SDS011;56152;49.996;18.980;2023-01-10T15:34:32;31.02;;;19.70;;
43646;SDS011;56152;49.996;18.980;2023-01-10T15:39:35;35.50;;;25.02;;
43646;SDS011;56152;49.996;18.980;2023-01-10T15:44:42;28.30;;;21.73;;
43646;SDS011;56152;49.996;18.980;2023-01-10T15:49:53;25.95;;;18.67;;
43646;SDS011;56152;49.996;18.980;2023-01-10T15:54:57;29.52;;;21.20;;
43646;SDS011;56152;49.996;18.980;2023-01-10T16:00:02;205.73;;;96.30;;
43646;SDS011;56152;49.996;18.980;2023-01-10T16:05:06;55.67;;;35.50;;
43646;SDS011;56152;49.996;18.980;2023-01-10T16:10:14;110.03;;;81.68;;
43646;SDS011;56152;49.996;18.980;2023-01-10T16:15:25;50.55;;;36.60;;
43646;SDS011;56152;49.996;18.980;2023-01-10T16:20:29;53.15;;;33.92;;
43646;SDS011;56152;49.996;18.980;2023-01-10T16:25:36;59.80;;;38.25;;
43646;SDS011;56152;49.996;18.980;2023-01-10T16:30:45;40.40;;;26.60;;
43646;SDS011;56152;49.996;18.980;2023-01-10T16:35:50;66.05;;;38.08;;
43646;SDS011;56152;49.996;18.980;2023-01-10T16:40:56;58.10;;;34.08;;
43646;SDS011;56152;49.996;18.980;2023-01-10T16:46:02;56.53;;;32.60;;
43646;SDS011;56152;49.996;18.980;2023-01-10T16:51:09;62.25;;;38.92;;
43646;SDS011;56152;49.996;18.980;2023-01-10T16:56:17;52.53;;;30.85;;
43646;SDS011;56152;49.996;18.980;2023-01-10T17:01:23;51.75;;;30.88;;
43646;SDS011;56152;49.996;18.980;2023-01-10T17:06:27;44.95;;;28.05;;
43646;SDS011;56152;49.996;18.980;2023-01-10T17:11:31;39.75;;;25.15;;
43646;SDS011;56152;49.996;18.980;2023-01-10T17:16:39;35.35;;;23.30;;
43646;SDS011;56152;49.996;18.980;2023-01-10T17:21:41;41.92;;;25.90;;
43646;SDS011;56152;49.996;18.980;2023-01-10T17:26:43;33.88;;;22.98;;
43646;SDS011;56152;49.996;18.980;2023-01-10T17:31:47;31.75;;;20.77;;
43646;SDS011;56152;49.996;18.980;2023-01-10T17:36:50;41.33;;;25.27;;
43646;SDS011;56152;49.996;18.980;2023-01-10T17:41:55;62.63;;;36.38;;
43646;SDS011;56152;49.996;18.980;2023-01-10T17:47:00;62.92;;;37.92;;
43646;SDS011;56152;49.996;18.980;2023-01-10T17:52:03;65.80;;;36.67;;
43646;SDS011;56152;49.996;18.980;2023-01-10T17:57:05;70.70;;;45.10;;
43646;SDS011;56152;49.996;18.980;2023-01-10T18:02:13;68.93;;;39.67;;
43646;SDS011;56152;49.996;18.980;2023-01-10T18:07:19;49.20;;;34.63;;
43646;SDS011;56152;49.996;18.980;2023-01-10T18:12:21;58.65;;;39.65;;
43646;SDS011;56152;49.996;18.980;2023-01-10T18:17:26;51.28;;;36.17;;
43646;SDS011;56152;49.996;18.980;2023-01-10T18:22:29;45.42;;;27.95;;
43646;SDS011;56152;49.996;18.980;2023-01-10T18:27:49;39.17;;;27.60;;
43646;SDS011;56152;49.996;18.980;2023-01-10T18:32:56;43.67;;;27.40;;
43646;SDS011;56152;49.996;18.980;2023-01-10T18:37:59;46.95;;;29.98;;
43646;SDS011;56152;49.996;18.980;2023-01-10T18:43:00;54.50;;;33.10;;
43646;SDS011;56152;49.996;18.980;2023-01-10T18:48:05;53.13;;;32.35;;
43646;SDS011;56152;49.996;18.980;2023-01-10T18:53:08;53.60;;;32.55;;
43646;SDS011;56152;49.996;18.980;2023-01-10T18:58:13;62.70;;;38.42;;
43646;SDS011;56152;49.996;18.980;2023-01-10T19:03:18;63.45;;;38.10;;
43646;SDS011;56152;49.996;18.980;2023-01-10T19:08:23;72.90;;;44.33;;
43646;SDS011;56152;49.996;18.980;2023-01-10T19:13:25;68.63;;;41.05;;
43646;SDS011;56152;49.996;18.980;2023-01-10T19:18:30;59.03;;;36.17;;
43646;SDS011;56152;49.996;18.980;2023-01-10T19:23:33;57.33;;;34.03;;
43646;SDS011;56152;49.996;18.980;2023-01-10T19:28:36;56.78;;;33.95;;
43646;SDS011;56152;49.996;18.980;2023-01-10T19:33:45;69.32;;;35.33;;
43646;SDS011;56152;49.996;18.980;2023-01-10T19:38:52;58.78;;;37.72;;
43646;SDS011;56152;49.996;18.980;2023-01-10T19:43:59;46.40;;;27.93;;
43646;SDS011;56152;49.996;18.980;2023-01-10T19:49:06;62.20;;;38.45;;
43646;SDS011;56152;49.996;18.980;2023-01-10T19:54:10;63.70;;;38.70;;
43646;SDS011;56152;49.996;18.980;2023-01-10T19:59:12;71.15;;;38.95;;
43646;SDS011;56152;49.996;18.980;2023-01-10T20:04:18;62.28;;;37.60;;
43646;SDS011;56152;49.996;18.980;2023-01-10T20:09:20;88.32;;;48.33;;
43646;SDS011;56152;49.996;18.980;2023-01-10T20:14:22;92.55;;;53.65;;
43646;SDS011;56152;49.996;18.980;2023-01-10T20:19:27;81.28;;;47.83;;
43646;SDS011;56152;49.996;18.980;2023-01-10T20:24:29;87.47;;;50.70;;
43646;SDS011;56152;49.996;18.980;2023-01-10T20:29:31;84.63;;;46.40;;
43646;SDS011;56152;49.996;18.980;2023-01-10T20:34:35;64.78;;;36.53;;
43646;SDS011;56152;49.996;18.980;2023-01-10T20:39:38;64.05;;;38.80;;
43646;SDS011;56152;49.996;18.980;2023-01-10T20:44:40;72.03;;;37.63;;
43646;SDS011;56152;49.996;18.980;2023-01-10T20:49:45;57.95;;;33.78;;
43646;SDS011;56152;49.996;18.980;2023-01-10T20:54:47;70.32;;;39.80;;
43646;SDS011;56152;49.996;18.980;2023-01-10T20:59:49;89.03;;;41.85;;
43646;SDS011;56152;49.996;18.980;2023-01-10T21:04:54;76.13;;;43.78;;
43646;SDS011;56152;49.996;18.980;2023-01-10T21:09:56;80.10;;;47.20;;
43646;SDS011;56152;49.996;18.980;2023-01-10T21:14:59;82.28;;;47.40;;
43646;SDS011;56152;49.996;18.980;2023-01-10T21:20:04;90.85;;;52.90;;
43646;SDS011;56152;49.996;18.980;2023-01-10T21:25:07;130.80;;;81.65;;
43646;SDS011;56152;49.996;18.980;2023-01-10T21:30:13;122.53;;;75.28;;
43646;SDS011;56152;49.996;18.980;2023-01-10T21:35:19;98.97;;;51.47;;
43646;SDS011;56152;49.996;18.980;2023-01-10T21:40:21;89.03;;;47.33;;
43646;SDS011;56152;49.996;18.980;2023-01-10T21:45:24;73.53;;;40.22;;
43646;SDS011;56152;49.996;18.980;2023-01-10T21:50:29;98.88;;;53.05;;
43646;SDS011;56152;49.996;18.980;2023-01-10T21:55:32;83.57;;;45.97;;
43646;SDS011;56152;49.996;18.980;2023-01-10T22:00:35;76.20;;;42.75;;
43646;SDS011;56152;49.996;18.980;2023-01-10T22:05:40;100.82;;;49.78;;
43646;SDS011;56152;49.996;18.980;2023-01-10T22:10:42;83.00;;;46.63;;
43646;SDS011;56152;49.996;18.980;2023-01-10T22:15:55;98.65;;;53.72;;
43646;SDS011;56152;49.996;18.980;2023-01-10T22:21:00;104.47;;;58.70;;
43646;SDS011;56152;49.996;18.980;2023-01-10T22:26:03;123.80;;;64.82;;
43646;SDS011;56152;49.996;18.980;2023-01-10T22:31:18;107.63;;;57.33;;
43646;SDS011;56152;49.996;18.980;2023-01-10T22:36:23;74.60;;;42.20;;
43646;SDS011;56152;49.996;18.980;2023-01-10T22:41:25;83.93;;;46.85;;
43646;SDS011;56152;49.996;18.980;2023-01-10T22:46:29;127.68;;;68.18;;
43646;SDS011;56152;49.996;18.980;2023-01-10T22:51:33;129.30;;;64.93;;
43646;SDS011;56152;49.996;18.980;2023-01-10T22:56:36;95.25;;;52.33;;
43646;SDS011;56152;49.996;18.980;2023-01-10T23:01:38;111.32;;;65.15;;
43646;SDS011;56152;49.996;18.980;2023-01-10T23:06:42;110.68;;;66.95;;
43646;SDS011;56152;49.996;18.980;2023-01-10T23:11:44;66.63;;;39.58;;
43646;SDS011;56152;49.996;18.980;2023-01-10T23:16:46;66.20;;;33.85;;
43646;SDS011;56152;49.996;18.980;2023-01-10T23:21:53;58.80;;;33.28;;
43646;SDS011;56152;49.996;18.980;2023-01-10T23:26:55;84.07;;;43.17;;
43646;SDS011;56152;49.996;18.980;2023-01-10T23:31:57;72.10;;;39.72;;
43646;SDS011;56152;49.996;18.980;2023-01-10T23:37:02;72.43;;;44.00;;
43646;SDS011;56152;49.996;18.980;2023-01-10T23:42:07;93.70;;;55.20;;
43646;SDS011;56152;49.996;18.980;2023-01-10T23:47:09;83.28;;;48.25;;
43646;SDS011;56152;49.996;18.980;2023-01-10T23:52:13;83.47;;;45.92;;
43646;SDS011;56152;49.996;18.980;2023-01-10T23:57:20;69.28;;;43.00;;
